createdAt,value
2019-02-21T00:02:14.253Z,12.50
2019-02-21T00:04:44.825Z,12.50
2019-02-21T00:07:15.410Z,12.50
2019-02-21T00:09:46.124Z,12.50
2019-02-21T00:12:16.675Z,12.50
2019-02-21T00:14:47.390Z,12.50
2019-02-21T00:17:18.005Z,12.40
2019-02-21T00:19:48.621Z,12.40
2019-02-21T00:22:19.256Z,12.40
2019-02-21T00:24:49.862Z,12.40
2019-02-21T00:27:20.405Z,12.40
2019-02-21T00:29:50.988Z,12.40
2019-02-21T00:32:21.621Z,12.40
2019-02-21T00:34:52.379Z,12.40
2019-02-21T00:37:23.172Z,12.40
2019-02-21T00:39:53.774Z,12.40
2019-02-21T00:42:24.651Z,12.40
2019-02-21T00:44:55.253Z,12.40
2019-02-21T00:47:25.925Z,12.40
2019-02-21T00:49:56.455Z,12.40
2019-02-21T00:52:27.046Z,12.40
2019-02-21T00:54:57.697Z,12.40
2019-02-21T00:57:28.187Z,12.40
2019-02-21T00:59:58.939Z,12.30
2019-02-21T01:02:29.443Z,12.30
2019-02-21T01:05:00.367Z,12.30
2019-02-21T01:07:31.278Z,12.30
2019-02-21T01:10:01.877Z,12.30
2019-02-21T01:12:32.500Z,12.30
2019-02-21T01:15:03.048Z,12.30
2019-02-21T01:17:34.816Z,12.20
2019-02-21T01:20:06.263Z,12.20
2019-02-21T01:22:37.078Z,12.20
2019-02-21T01:25:08.154Z,12.20
2019-02-21T01:27:39.872Z,12.20
2019-02-21T01:30:10.793Z,12.20
2019-02-21T01:32:41.594Z,12.20
2019-02-21T01:35:12.304Z,12.20
2019-02-21T01:37:43.846Z,12.20
2019-02-21T01:40:14.614Z,12.10
2019-02-21T01:42:45.212Z,12.10
2019-02-21T01:45:15.839Z,12.10
2019-02-21T01:47:46.476Z,12.10
2019-02-21T01:50:17.145Z,12.10
2019-02-21T01:52:47.775Z,12.10
2019-02-21T01:55:18.612Z,12.00
2019-02-21T01:57:49.147Z,12.00
2019-02-21T02:00:19.793Z,12.00
2019-02-21T02:02:50.365Z,12.00
2019-02-21T02:05:20.774Z,12.00
2019-02-21T02:07:51.240Z,12.00
2019-02-21T02:10:21.878Z,11.90
2019-02-21T02:12:52.586Z,11.90
2019-02-21T02:15:25.872Z,11.90
2019-02-21T02:17:56.466Z,11.90
2019-02-21T02:20:28.122Z,11.90
2019-02-21T02:22:59.019Z,11.90
2019-02-21T02:25:32.766Z,11.90
2019-02-21T02:28:07.296Z,11.90
2019-02-21T02:30:39.038Z,11.90
2019-02-21T02:33:09.458Z,11.90
2019-02-21T02:35:40.282Z,11.90
2019-02-21T02:38:10.871Z,11.90
2019-02-21T02:40:44.515Z,11.90
2019-02-21T02:43:15.030Z,11.80
2019-02-21T02:45:46.286Z,11.90
2019-02-21T02:48:16.917Z,11.80
2019-02-21T02:50:47.953Z,11.90
2019-02-21T02:53:18.853Z,11.80
2019-02-21T02:55:49.412Z,11.80
2019-02-21T02:58:19.910Z,11.90
2019-02-21T03:00:50.986Z,11.80
2019-02-21T03:03:21.665Z,11.80
2019-02-21T03:05:52.448Z,11.80
2019-02-21T03:08:23.158Z,11.80
2019-02-21T03:10:53.707Z,11.80
2019-02-21T03:13:24.372Z,11.80
2019-02-21T03:15:55.194Z,11.80
2019-02-21T03:18:25.802Z,11.70
2019-02-21T03:20:57.254Z,11.70
2019-02-21T03:23:28.109Z,11.70
2019-02-21T03:25:58.811Z,11.70
2019-02-21T03:28:29.428Z,11.70
2019-02-21T03:31:00.135Z,11.70
2019-02-21T03:33:30.613Z,11.60
2019-02-21T03:36:02.279Z,11.60
2019-02-21T03:38:35.074Z,11.60
2019-02-21T03:41:05.140Z,11.60
2019-02-21T03:43:35.638Z,11.60
2019-02-21T03:46:06.229Z,11.60
2019-02-21T03:48:36.767Z,11.50
2019-02-21T03:51:07.360Z,11.50
2019-02-21T03:53:38.004Z,11.50
2019-02-21T03:56:08.505Z,11.50
2019-02-21T03:58:38.996Z,11.40
2019-02-21T04:01:09.573Z,11.40
2019-02-21T04:03:40.020Z,11.40
2019-02-21T04:06:10.561Z,11.30
2019-02-21T04:08:41.184Z,11.40
2019-02-21T04:11:11.660Z,11.40
2019-02-21T04:13:42.239Z,11.30
2019-02-21T04:16:12.711Z,11.30
2019-02-21T04:18:43.189Z,11.40
2019-02-21T04:21:13.796Z,11.40
2019-02-21T04:23:47.084Z,11.40
2019-02-21T04:26:17.517Z,11.40
2019-02-21T04:28:48.994Z,11.40
2019-02-21T04:31:21.258Z,11.40
2019-02-21T04:33:52.234Z,11.40
2019-02-21T04:36:23.608Z,11.40
2019-02-21T04:38:54.363Z,11.40
2019-02-21T04:41:24.833Z,11.40
2019-02-21T04:43:55.312Z,11.40
2019-02-21T04:46:25.918Z,11.40
2019-02-21T04:48:56.546Z,11.30
2019-02-21T04:51:26.998Z,11.40
2019-02-21T04:53:57.653Z,11.40
2019-02-21T04:56:28.160Z,11.30
2019-02-21T04:58:58.637Z,11.30
2019-02-21T05:01:29.046Z,11.30
2019-02-21T05:03:59.571Z,11.30
2019-02-21T05:06:31.252Z,11.30
2019-02-21T05:09:01.888Z,11.20
2019-02-21T05:11:34.274Z,11.20
2019-02-21T05:14:04.954Z,11.20
2019-02-21T05:16:35.527Z,11.20
2019-02-21T05:19:06.305Z,11.20
2019-02-21T05:21:36.809Z,11.20
2019-02-21T05:24:07.419Z,11.20
2019-02-21T05:26:51.067Z,11.20
2019-02-21T05:29:21.560Z,11.20
2019-02-21T05:32:07.821Z,11.20
2019-02-21T05:34:46.101Z,11.20
2019-02-21T05:37:30.468Z,11.20
2019-02-21T05:40:32.016Z,11.20
2019-02-21T05:43:14.697Z,11.20
2019-02-21T05:46:16.342Z,11.20
2019-02-21T05:49:15.303Z,11.10
2019-02-21T05:52:03.509Z,11.20
2019-02-21T05:54:55.747Z,11.20
2019-02-21T05:57:57.334Z,11.20
2019-02-21T06:00:51.292Z,11.20
2019-02-21T06:03:35.610Z,11.20
2019-02-21T06:06:21.868Z,11.20
2019-02-21T06:09:17.468Z,11.20
2019-02-21T06:12:12.615Z,11.20
2019-02-21T06:15:00.916Z,11.20
2019-02-21T06:17:40.000Z,11.20
2019-02-21T06:20:35.396Z,11.30
2019-02-21T06:23:12.360Z,11.30
2019-02-21T06:26:01.732Z,11.30
2019-02-21T06:28:53.464Z,11.30
2019-02-21T06:31:23.354Z,11.40
2019-02-21T06:33:53.803Z,11.30
2019-02-21T06:36:26.179Z,11.40
2019-02-21T06:38:56.274Z,11.40
2019-02-21T06:41:26.738Z,11.40
2019-02-21T06:43:57.388Z,11.50
2019-02-21T06:46:27.861Z,11.50
2019-02-21T06:48:58.320Z,11.50
2019-02-21T06:51:28.915Z,11.50
2019-02-21T06:53:59.291Z,11.60
2019-02-21T06:56:31.372Z,11.60
2019-02-21T06:59:02.006Z,11.60
2019-02-21T07:01:32.742Z,11.70
2019-02-21T07:04:03.209Z,11.70
2019-02-21T07:06:34.244Z,11.70
2019-02-21T07:09:05.685Z,11.70
2019-02-21T07:11:36.413Z,11.70
2019-02-21T07:14:06.833Z,11.70
2019-02-21T07:16:37.501Z,11.80
2019-02-21T07:19:08.076Z,11.80
2019-02-21T07:21:38.568Z,11.80
2019-02-21T07:24:09.104Z,11.80
2019-02-21T07:26:39.686Z,11.90
2019-02-21T07:29:10.257Z,11.90
2019-02-21T07:31:40.937Z,11.90
2019-02-21T07:34:11.524Z,12.00
2019-02-21T07:36:42.129Z,12.00
2019-02-21T07:39:18.520Z,12.10
2019-02-21T07:41:49.955Z,12.10
2019-02-21T07:44:20.071Z,12.10
2019-02-21T07:46:53.241Z,12.20
2019-02-21T07:49:22.859Z,12.20
2019-02-21T07:51:53.366Z,12.20
2019-02-21T07:54:23.878Z,12.20
2019-02-21T07:56:54.513Z,12.20
2019-02-21T07:59:24.920Z,12.30
2019-02-21T08:01:55.354Z,12.30
2019-02-21T08:04:25.872Z,12.30
2019-02-21T08:06:56.439Z,12.30
2019-02-21T08:09:27.991Z,12.30
2019-02-21T08:11:58.480Z,12.40
2019-02-21T08:14:28.987Z,12.40
2019-02-21T08:16:59.427Z,12.40
2019-02-21T08:19:29.919Z,12.50
2019-02-21T08:22:00.487Z,12.50
2019-02-21T08:24:30.945Z,12.60
2019-02-21T08:27:01.382Z,12.60
2019-02-21T08:29:31.905Z,12.70
2019-02-21T08:32:02.308Z,12.70
2019-02-21T08:34:40.231Z,12.80
2019-02-21T08:37:10.698Z,12.80
2019-02-21T08:39:41.220Z,12.90
2019-02-21T08:42:11.693Z,12.90
2019-02-21T08:44:42.120Z,13.00
2019-02-21T08:47:12.569Z,13.10
2019-02-21T08:49:43.190Z,13.10
2019-02-21T08:52:13.703Z,13.10
2019-02-21T08:54:44.466Z,13.20
2019-02-21T08:57:20.766Z,13.20
2019-02-21T09:00:11.002Z,13.30
2019-02-21T09:02:41.934Z,13.30
2019-02-21T09:05:12.677Z,13.40
2019-02-21T09:07:46.076Z,13.40
2019-02-21T09:10:15.513Z,13.40
2019-02-21T09:12:48.506Z,13.50
2019-02-21T09:15:18.646Z,13.50
2019-02-21T09:17:49.114Z,13.60
2019-02-21T09:20:19.715Z,13.60
2019-02-21T09:22:50.261Z,13.70
2019-02-21T09:25:20.872Z,13.80
2019-02-21T09:28:03.392Z,13.80
2019-02-21T09:30:33.893Z,13.90
2019-02-21T09:33:04.643Z,14.00
2019-02-21T09:35:35.146Z,14.00
2019-02-21T09:38:05.869Z,14.10
2019-02-21T09:40:36.550Z,14.20
2019-02-21T09:43:07.201Z,14.20
2019-02-21T09:45:37.966Z,14.30
2019-02-21T09:48:08.540Z,14.40
2019-02-21T09:50:40.023Z,14.40
2019-02-21T09:53:10.580Z,14.50
2019-02-21T09:55:41.099Z,14.60
2019-02-21T09:58:11.633Z,14.70
2019-02-21T10:00:42.062Z,14.80
2019-02-21T10:03:12.511Z,14.80
2019-02-21T10:05:43.084Z,14.90
2019-02-21T10:08:13.572Z,15.00
2019-02-21T10:10:44.074Z,15.10
2019-02-21T10:13:14.667Z,15.20
2019-02-21T10:15:46.987Z,15.20
2019-02-21T10:18:17.397Z,15.30
2019-02-21T10:20:48.215Z,15.30
2019-02-21T10:23:19.000Z,15.40
2019-02-21T10:25:49.589Z,15.50
2019-02-21T10:28:20.098Z,15.50
2019-02-21T10:31:09.664Z,15.60
2019-02-21T10:33:46.996Z,15.60
2019-02-21T10:36:13.782Z,15.70
2019-02-21T10:38:44.518Z,15.70
2019-02-21T10:41:15.177Z,15.80
2019-02-21T10:43:45.781Z,15.90
2019-02-21T10:46:16.427Z,15.90
2019-02-21T10:48:46.969Z,16.00
2019-02-21T10:51:17.593Z,16.00
2019-02-21T10:53:49.868Z,16.10
2019-02-21T10:56:20.441Z,16.10
2019-02-21T10:58:51.060Z,16.20
2019-02-21T11:01:21.609Z,16.30
2019-02-21T11:03:51.994Z,16.30
2019-02-21T11:06:22.420Z,16.40
2019-02-21T11:08:53.376Z,16.40
2019-02-21T11:11:24.101Z,16.50
2019-02-21T11:13:54.506Z,16.50
2019-02-21T11:16:26.813Z,16.60
2019-02-21T11:18:58.026Z,16.70
2019-02-21T11:21:30.050Z,16.70
2019-02-21T11:24:05.095Z,16.80
2019-02-21T11:26:38.307Z,16.80
2019-02-21T11:29:15.613Z,16.80
2019-02-21T11:31:58.257Z,16.90
2019-02-21T11:34:41.221Z,16.90
2019-02-21T11:37:42.766Z,16.90
2019-02-21T11:40:20.452Z,16.90
2019-02-21T11:42:52.617Z,16.90
2019-02-21T11:45:53.878Z,17.00
2019-02-21T11:48:25.781Z,17.10
2019-02-21T11:51:00.354Z,17.10
2019-02-21T11:53:44.145Z,17.20
2019-02-21T11:56:20.132Z,17.20
2019-02-21T11:58:52.267Z,17.20
2019-02-21T12:01:29.108Z,17.30
2019-02-21T12:04:03.253Z,17.30
2019-02-21T12:06:34.653Z,17.30
2019-02-21T12:09:09.327Z,17.30
2019-02-21T12:11:41.578Z,17.30
2019-02-21T12:14:12.886Z,17.30
2019-02-21T12:16:44.709Z,17.30
2019-02-21T12:19:16.112Z,17.40
2019-02-21T12:21:58.732Z,17.30
2019-02-21T12:24:22.456Z,17.30
2019-02-21T12:26:53.021Z,17.30
2019-02-21T12:29:23.583Z,17.20
2019-02-21T12:31:54.239Z,17.30
2019-02-21T12:34:25.170Z,17.20
2019-02-21T12:36:56.295Z,17.20
2019-02-21T12:39:26.898Z,17.20
2019-02-21T12:41:57.558Z,17.20
2019-02-21T12:44:28.120Z,17.20
2019-02-21T12:46:58.704Z,17.20
2019-02-21T12:49:29.314Z,17.20
2019-02-21T12:51:59.836Z,17.30
2019-02-21T12:54:30.354Z,17.20
2019-02-21T12:57:00.874Z,17.30
2019-02-21T12:59:31.459Z,17.30
2019-02-21T13:02:02.037Z,17.30
2019-02-21T13:04:33.452Z,17.30
2019-02-21T13:07:08.001Z,17.40
2019-02-21T13:09:38.571Z,17.40
2019-02-21T13:12:09.100Z,17.40
2019-02-21T13:14:39.446Z,17.40
2019-02-21T13:17:09.932Z,17.50
2019-02-21T13:19:40.440Z,17.50
2019-02-21T13:22:10.897Z,17.50
2019-02-21T13:24:41.351Z,17.60
2019-02-21T13:27:11.833Z,17.60
2019-02-21T13:29:42.354Z,17.60
2019-02-21T13:32:12.736Z,17.60
2019-02-21T13:34:43.195Z,17.70
2019-02-21T13:37:13.817Z,17.80
2019-02-21T13:39:44.373Z,17.80
2019-02-21T13:42:14.830Z,17.80
2019-02-21T13:44:45.321Z,17.90
2019-02-21T13:47:15.799Z,17.90
2019-02-21T13:49:46.209Z,18.00
2019-02-21T13:52:16.584Z,18.00
2019-02-21T13:54:47.164Z,18.00
2019-02-21T13:57:17.714Z,18.00
2019-02-21T13:59:48.322Z,18.10
2019-02-21T14:02:18.833Z,18.10
2019-02-21T14:04:49.307Z,18.00
2019-02-21T14:07:20.000Z,18.00
2019-02-21T14:09:50.479Z,18.00
2019-02-21T14:12:20.952Z,18.00
2019-02-21T14:14:51.337Z,17.90
2019-02-21T14:17:21.915Z,17.90
2019-02-21T14:19:53.054Z,17.90
2019-02-21T14:22:23.682Z,17.80
2019-02-21T14:24:54.260Z,17.70
2019-02-21T14:27:24.804Z,17.70
2019-02-21T14:29:55.344Z,17.70
2019-02-21T14:32:25.855Z,17.60
2019-02-21T14:34:56.429Z,17.60
2019-02-21T14:37:26.931Z,17.50
2019-02-21T14:39:57.453Z,17.40
2019-02-21T14:42:28.002Z,17.40
2019-02-21T14:44:58.463Z,17.40
2019-02-21T14:47:29.152Z,17.30
2019-02-21T14:50:00.644Z,17.30
2019-02-21T14:52:31.124Z,17.20
2019-02-21T14:55:01.581Z,17.20
2019-02-21T14:57:40.449Z,17.10
2019-02-21T15:00:05.153Z,17.10
2019-02-21T15:02:36.013Z,17.10
2019-02-21T15:05:06.532Z,17.10
2019-02-21T15:07:37.268Z,17.10
2019-02-21T15:10:08.167Z,17.10
2019-02-21T15:12:38.702Z,17.00
2019-02-21T15:15:10.255Z,17.00
2019-02-21T15:17:42.530Z,17.00
2019-02-21T15:20:15.401Z,17.00
2019-02-21T15:22:45.992Z,16.90
2019-02-21T15:25:16.585Z,16.90
2019-02-21T15:27:47.137Z,16.90
2019-02-21T15:30:18.709Z,16.90
2019-02-21T15:32:49.457Z,16.80
2019-02-21T15:35:19.986Z,16.80
2019-02-21T15:37:51.702Z,16.80
2019-02-21T15:40:22.168Z,16.80
2019-02-21T15:42:52.988Z,16.70
2019-02-21T15:45:24.358Z,16.70
2019-02-21T15:47:56.179Z,16.70
2019-02-21T15:50:26.748Z,16.70
2019-02-21T15:52:57.361Z,16.70
2019-02-21T15:55:28.795Z,16.70
2019-02-21T15:58:04.004Z,16.60
2019-02-21T16:00:31.528Z,16.60
2019-02-21T16:03:02.005Z,16.60
2019-02-21T16:05:33.340Z,16.50
2019-02-21T16:08:04.004Z,16.50
2019-02-21T16:10:34.506Z,16.60
2019-02-21T16:13:05.304Z,16.50
2019-02-21T16:15:35.858Z,16.50
2019-02-21T16:18:06.297Z,16.40
2019-02-21T16:20:36.737Z,16.40
2019-02-21T16:23:07.299Z,16.40
2019-02-21T16:25:37.805Z,16.30
2019-02-21T16:28:08.395Z,16.30
2019-02-21T16:30:38.921Z,16.30
2019-02-21T16:33:09.598Z,16.20
2019-02-21T16:35:39.982Z,16.20
2019-02-21T16:38:10.610Z,16.20
2019-02-21T16:40:41.160Z,16.20
2019-02-21T16:43:11.779Z,16.20
2019-02-21T16:45:46.399Z,16.20
2019-02-21T16:48:14.680Z,16.20
2019-02-21T16:50:45.137Z,16.20
2019-02-21T16:53:16.719Z,16.10
2019-02-21T16:55:47.415Z,16.10
2019-02-21T16:58:18.012Z,16.10
2019-02-21T17:00:54.749Z,16.10
2019-02-21T17:03:21.036Z,16.10
2019-02-21T17:05:51.595Z,16.10
2019-02-21T17:08:22.185Z,16.00
2019-02-21T17:10:52.711Z,16.00
2019-02-21T17:13:23.686Z,16.00
2019-02-21T17:15:56.317Z,16.00
2019-02-21T17:18:26.862Z,16.00
2019-02-21T17:20:57.458Z,16.00
2019-02-21T17:23:27.994Z,15.90
2019-02-21T17:25:58.484Z,15.90
2019-02-21T17:28:29.093Z,15.90
2019-02-21T17:30:59.657Z,15.90
2019-02-21T17:33:30.277Z,15.90
2019-02-21T17:36:01.757Z,15.90
2019-02-21T17:38:32.386Z,15.90
2019-02-21T17:41:02.788Z,15.90
2019-02-21T17:43:33.377Z,15.90
2019-02-21T17:46:04.074Z,15.90
2019-02-21T17:48:34.679Z,15.90
2019-02-21T17:51:05.271Z,15.90
2019-02-21T17:53:36.017Z,15.90
2019-02-21T17:56:06.826Z,15.90
2019-02-21T17:58:37.395Z,15.90
2019-02-21T18:01:08.202Z,15.80
2019-02-21T18:03:38.769Z,15.90
2019-02-21T18:06:09.637Z,15.90
2019-02-21T18:08:40.324Z,15.80
2019-02-21T18:11:12.782Z,15.90
2019-02-21T18:13:43.288Z,15.80
2019-02-21T18:16:13.776Z,15.80
2019-02-21T18:18:44.418Z,15.70
2019-02-21T18:21:16.549Z,15.70
2019-02-21T18:23:47.314Z,15.70
2019-02-21T18:26:19.477Z,15.70
2019-02-21T18:28:50.007Z,15.70
2019-02-21T18:31:25.252Z,15.70
2019-02-21T18:33:55.965Z,15.70
2019-02-21T18:36:26.525Z,15.70
2019-02-21T18:38:57.162Z,15.70
2019-02-21T18:41:29.366Z,15.70
2019-02-21T18:44:00.050Z,15.70
2019-02-21T18:46:30.474Z,15.70
2019-02-21T18:49:01.040Z,15.70
2019-02-21T18:51:31.741Z,15.70
2019-02-21T18:54:02.188Z,15.70
2019-02-21T18:56:32.795Z,15.70
2019-02-21T18:59:03.333Z,15.70
2019-02-21T19:01:33.938Z,15.70
2019-02-21T19:04:05.594Z,15.70
2019-02-21T19:06:36.102Z,15.70
2019-02-21T19:09:08.274Z,15.70
2019-02-21T19:11:38.932Z,15.70
2019-02-21T19:14:09.527Z,15.70
2019-02-21T19:16:41.163Z,15.70
2019-02-21T19:19:12.769Z,15.80
2019-02-21T19:21:43.320Z,15.70
2019-02-21T19:24:13.829Z,15.80
2019-02-21T19:26:44.308Z,15.80
2019-02-21T19:29:14.774Z,15.80
2019-02-21T19:31:45.623Z,15.80
2019-02-21T19:34:16.185Z,15.80
2019-02-21T19:36:46.774Z,15.80
2019-02-21T19:39:17.313Z,15.80
2019-02-21T19:41:47.896Z,15.80
2019-02-21T19:44:18.366Z,15.80
2019-02-21T19:46:48.919Z,15.80
2019-02-21T19:49:22.998Z,15.80
2019-02-21T19:52:00.234Z,15.80
2019-02-21T19:54:33.069Z,15.90
2019-02-21T19:57:35.080Z,15.80
2019-02-21T20:00:15.982Z,15.80
2019-02-21T20:02:47.838Z,15.80
2019-02-21T20:05:19.412Z,15.80
2019-02-21T20:07:50.714Z,15.70
2019-02-21T20:10:21.895Z,15.70
2019-02-21T20:12:52.518Z,15.70
2019-02-21T20:15:23.354Z,15.70
2019-02-21T20:17:55.163Z,15.70
2019-02-21T20:20:27.386Z,15.70
2019-02-21T20:22:58.154Z,15.70
2019-02-21T20:25:28.726Z,15.60
2019-02-21T20:28:02.520Z,15.60
2019-02-21T20:30:33.909Z,15.60
2019-02-21T20:33:09.805Z,15.60
2019-02-21T20:35:41.399Z,15.60
2019-02-21T20:38:14.534Z,15.60
2019-02-21T20:40:47.860Z,15.60
2019-02-21T20:43:18.976Z,15.60
2019-02-21T20:46:07.778Z,15.60
2019-02-21T20:48:38.739Z,15.60
2019-02-21T20:51:09.241Z,15.60
2019-02-21T20:53:39.781Z,15.50
2019-02-21T20:56:10.289Z,15.60
2019-02-21T20:58:40.770Z,15.50
2019-02-21T21:01:12.616Z,15.50
2019-02-21T21:03:43.369Z,15.50
2019-02-21T21:06:14.074Z,15.60
2019-02-21T21:08:46.776Z,15.50
2019-02-21T21:11:18.321Z,15.60
2019-02-21T21:13:48.859Z,15.50
2019-02-21T21:16:19.501Z,15.50
2019-02-21T21:18:50.104Z,15.50
2019-02-21T21:21:20.752Z,15.50
2019-02-21T21:23:51.304Z,15.50
2019-02-21T21:26:21.818Z,15.50
2019-02-21T21:28:54.033Z,15.50
2019-02-21T21:31:24.755Z,15.60
2019-02-21T21:33:55.345Z,15.50
2019-02-21T21:36:26.292Z,15.60
2019-02-21T21:38:56.824Z,15.60
2019-02-21T21:41:27.480Z,15.60
2019-02-21T21:43:58.048Z,15.60
2019-02-21T21:46:28.910Z,15.60
2019-02-21T21:48:59.387Z,15.60
2019-02-21T21:51:29.954Z,15.60
2019-02-21T21:54:00.628Z,15.60
2019-02-21T21:56:41.025Z,15.60
2019-02-21T21:59:11.799Z,15.60
2019-02-21T22:01:50.173Z,15.60
2019-02-21T22:04:22.181Z,15.60
2019-02-21T22:06:53.883Z,15.60
2019-02-21T22:09:27.414Z,15.60
2019-02-21T22:11:58.442Z,15.60
2019-02-21T22:14:29.933Z,15.60
2019-02-21T22:17:00.696Z,15.60
2019-02-21T22:19:31.639Z,15.60
2019-02-21T22:22:02.736Z,15.60
2019-02-21T22:24:33.437Z,15.60
2019-02-21T22:27:04.038Z,15.60
2019-02-21T22:29:34.641Z,15.60
2019-02-21T22:32:05.195Z,15.60
2019-02-21T22:34:35.848Z,15.60
2019-02-21T22:37:06.446Z,15.60
2019-02-21T22:39:36.994Z,15.60
2019-02-21T22:42:07.535Z,15.60
2019-02-21T22:44:38.011Z,15.60
2019-02-21T22:47:08.521Z,15.60
2019-02-21T22:49:39.059Z,15.60
2019-02-21T22:52:09.811Z,15.60
2019-02-21T22:54:40.495Z,15.60
2019-02-21T22:57:10.983Z,15.60
2019-02-21T22:59:41.522Z,15.60
2019-02-21T23:02:12.327Z,15.60
2019-02-21T23:05:17.460Z,15.60
2019-02-21T23:08:28.902Z,15.60
2019-02-21T23:10:59.399Z,15.50
2019-02-21T23:13:30.063Z,15.50
2019-02-21T23:16:00.678Z,15.40
2019-02-21T23:18:31.248Z,15.50
2019-02-21T23:21:01.738Z,15.50
2019-02-21T23:23:33.817Z,15.40
2019-02-21T23:26:05.659Z,15.40
2019-02-21T23:28:36.228Z,15.40
2019-02-21T23:31:06.783Z,15.40
2019-02-21T23:33:40.421Z,15.40
2019-02-21T23:36:11.073Z,15.30
2019-02-21T23:38:41.608Z,15.30
2019-02-21T23:41:12.118Z,15.30
2019-02-21T23:43:42.842Z,15.30
2019-02-21T23:46:13.366Z,15.30
2019-02-21T23:48:43.805Z,15.30
2019-02-21T23:51:14.443Z,15.20
2019-02-21T23:53:44.957Z,15.20
2019-02-21T23:56:15.575Z,15.20
2019-02-21T23:58:46.131Z,15.20
